sensor_id;sensor_type;location;lat;lon;timestamp;P1;durP1;ratioP1;P2;durP2;ratioP2
26965;SDS011;14522;52.068;4.414;2024-03-02T00:02:06;1.17;;;0.10;;
26965;SDS011;14522;52.068;4.414;2024-03-02T00:04:33;0.40;;;0.08;;
26965;SDS011;14522;52.068;4.414;2024-03-02T00:06:59;1.33;;;0.20;;
26965;SDS011;14522;52.068;4.414;2024-03-02T00:09:26;0.95;;;0.20;;
26965;SDS011;14522;52.068;4.414;2024-03-02T00:11:52;0.50;;;0.20;;
26965;SDS011;14522;52.068;4.414;2024-03-02T00:14:19;0.32;;;0.15;;
26965;SDS011;14522;52.068;4.414;2024-03-02T00:16:45;0.57;;;0.20;;
26965;SDS011;14522;52.068;4.414;2024-03-02T00:19:12;0.52;;;0.25;;
26965;SDS011;14522;52.068;4.414;2024-03-02T00:21:38;1.35;;;0.30;;
26965;SDS011;14522;52.068;4.414;2024-03-02T00:24:21;1.45;;;0.10;;
26965;SDS011;14522;52.068;4.414;2024-03-02T00:26:51;1.48;;;0.20;;
26965;SDS011;14522;52.068;4.414;2024-03-02T00:29:17;0.70;;;0.30;;
26965;SDS011;14522;52.068;4.414;2024-03-02T00:31:45;2.05;;;0.10;;
26965;SDS011;14522;52.068;4.414;2024-03-02T00:34:12;0.90;;;0.20;;
26965;SDS011;14522;52.068;4.414;2024-03-02T00:36:39;0.77;;;0.30;;
26965;SDS011;14522;52.068;4.414;2024-03-02T00:39:06;0.65;;;0.20;;
26965;SDS011;14522;52.068;4.414;2024-03-02T00:41:34;2.47;;;0.20;;
26965;SDS011;14522;52.068;4.414;2024-03-02T00:44:02;0.70;;;0.20;;
26965;SDS011;14522;52.068;4.414;2024-03-02T00:46:39;0.50;;;0.15;;
26965;SDS011;14522;52.068;4.414;2024-03-02T00:49:24;0.68;;;0.20;;
26965;SDS011;14522;52.068;4.414;2024-03-02T00:51:51;1.27;;;0.40;;
26965;SDS011;14522;52.068;4.414;2024-03-02T00:54:22;0.50;;;0.28;;
26965;SDS011;14522;52.068;4.414;2024-03-02T00:56:51;0.98;;;0.20;;
26965;SDS011;14522;52.068;4.414;2024-03-02T00:59:17;0.13;;;0.10;;
26965;SDS011;14522;52.068;4.414;2024-03-02T01:01:44;0.40;;;0.22;;
26965;SDS011;14522;52.068;4.414;2024-03-02T01:04:10;0.38;;;0.10;;
26965;SDS011;14522;52.068;4.414;2024-03-02T01:06:37;0.40;;;0.17;;
26965;SDS011;14522;52.068;4.414;2024-03-02T01:09:03;2.17;;;0.22;;
26965;SDS011;14522;52.068;4.414;2024-03-02T01:11:30;0.32;;;0.20;;
26965;SDS011;14522;52.068;4.414;2024-03-02T01:13:56;1.05;;;0.40;;
26965;SDS011;14522;52.068;4.414;2024-03-02T01:16:23;1.55;;;0.30;;
26965;SDS011;14522;52.068;4.414;2024-03-02T01:18:49;0.88;;;0.28;;
26965;SDS011;14522;52.068;4.414;2024-03-02T01:21:16;2.13;;;0.35;;
26965;SDS011;14522;52.068;4.414;2024-03-02T01:23:42;0.50;;;0.10;;
26965;SDS011;14522;52.068;4.414;2024-03-02T01:26:09;0.98;;;0.50;;
26965;SDS011;14522;52.068;4.414;2024-03-02T01:28:36;3.03;;;0.38;;
26965;SDS011;14522;52.068;4.414;2024-03-02T01:31:02;0.57;;;0.10;;
26965;SDS011;14522;52.068;4.414;2024-03-02T01:33:29;2.80;;;0.20;;
26965;SDS011;14522;52.068;4.414;2024-03-02T01:35:55;2.20;;;0.45;;
26965;SDS011;14522;52.068;4.414;2024-03-02T01:38:22;0.30;;;0.13;;
26965;SDS011;14522;52.068;4.414;2024-03-02T01:40:48;0.75;;;0.20;;
26965;SDS011;14522;52.068;4.414;2024-03-02T01:43:15;1.00;;;0.20;;
26965;SDS011;14522;52.068;4.414;2024-03-02T01:45:41;0.50;;;0.20;;
26965;SDS011;14522;52.068;4.414;2024-03-02T01:48:08;0.22;;;0.20;;
26965;SDS011;14522;52.068;4.414;2024-03-02T01:50:34;0.20;;;0.17;;
26965;SDS011;14522;52.068;4.414;2024-03-02T01:53:01;0.75;;;0.30;;
26965;SDS011;14522;52.068;4.414;2024-03-02T01:55:29;0.20;;;0.20;;
26965;SDS011;14522;52.068;4.414;2024-03-02T01:57:57;0.70;;;0.10;;
26965;SDS011;14522;52.068;4.414;2024-03-02T02:00:24;0.47;;;0.20;;
26965;SDS011;14522;52.068;4.414;2024-03-02T02:02:53;0.57;;;0.25;;
26965;SDS011;14522;52.068;4.414;2024-03-02T02:05:20;0.30;;;0.20;;
26965;SDS011;14522;52.068;4.414;2024-03-02T02:07:46;0.70;;;0.30;;
26965;SDS011;14522;52.068;4.414;2024-03-02T02:10:13;1.38;;;0.17;;
26965;SDS011;14522;52.068;4.414;2024-03-02T02:12:39;1.27;;;0.20;;
26965;SDS011;14522;52.068;4.414;2024-03-02T02:15:22;0.68;;;0.30;;
26965;SDS011;14522;52.068;4.414;2024-03-02T02:17:49;2.60;;;0.55;;
26965;SDS011;14522;52.068;4.414;2024-03-02T02:20:15;1.33;;;0.60;;
26965;SDS011;14522;52.068;4.414;2024-03-02T02:22:58;1.25;;;0.50;;
26965;SDS011;14522;52.068;4.414;2024-03-02T02:25:25;0.95;;;0.63;;
26965;SDS011;14522;52.068;4.414;2024-03-02T02:27:51;1.10;;;0.52;;
26965;SDS011;14522;52.068;4.414;2024-03-02T02:30:22;1.55;;;0.55;;
26965;SDS011;14522;52.068;4.414;2024-03-02T02:32:49;0.55;;;0.50;;
26965;SDS011;14522;52.068;4.414;2024-03-02T02:35:15;0.82;;;0.57;;
26965;SDS011;14522;52.068;4.414;2024-03-02T02:37:43;1.38;;;0.70;;
26965;SDS011;14522;52.068;4.414;2024-03-02T02:40:10;1.23;;;0.50;;
26965;SDS011;14522;52.068;4.414;2024-03-02T02:42:36;1.52;;;0.65;;
26965;SDS011;14522;52.068;4.414;2024-03-02T02:45:03;2.58;;;0.73;;
26965;SDS011;14522;52.068;4.414;2024-03-02T02:47:30;1.75;;;0.70;;
26965;SDS011;14522;52.068;4.414;2024-03-02T02:49:56;0.50;;;0.50;;
26965;SDS011;14522;52.068;4.414;2024-03-02T02:52:23;1.00;;;0.60;;
26965;SDS011;14522;52.068;4.414;2024-03-02T02:54:49;1.00;;;0.30;;
26965;SDS011;14522;52.068;4.414;2024-03-02T02:57:16;0.90;;;0.50;;
26965;SDS011;14522;52.068;4.414;2024-03-02T02:59:42;1.35;;;0.50;;
26965;SDS011;14522;52.068;4.414;2024-03-02T03:02:09;1.02;;;0.30;;
26965;SDS011;14522;52.068;4.414;2024-03-02T03:04:35;0.90;;;0.45;;
26965;SDS011;14522;52.068;4.414;2024-03-02T03:07:02;2.40;;;0.30;;
26965;SDS011;14522;52.068;4.414;2024-03-02T03:09:28;1.45;;;0.60;;
26965;SDS011;14522;52.068;4.414;2024-03-02T03:11:54;0.70;;;0.30;;
26965;SDS011;14522;52.068;4.414;2024-03-02T03:14:21;1.20;;;0.50;;
26965;SDS011;14522;52.068;4.414;2024-03-02T03:16:47;2.67;;;0.55;;
26965;SDS011;14522;52.068;4.414;2024-03-02T03:19:14;1.33;;;0.28;;
26965;SDS011;14522;52.068;4.414;2024-03-02T03:21:42;0.60;;;0.30;;
26965;SDS011;14522;52.068;4.414;2024-03-02T03:24:09;0.98;;;0.30;;
26965;SDS011;14522;52.068;4.414;2024-03-02T03:26:36;1.05;;;0.38;;
26965;SDS011;14522;52.068;4.414;2024-03-02T03:29:02;0.95;;;0.70;;
26965;SDS011;14522;52.068;4.414;2024-03-02T03:31:29;1.50;;;0.50;;
26965;SDS011;14522;52.068;4.414;2024-03-02T03:33:56;1.20;;;0.40;;
26965;SDS011;14522;52.068;4.414;2024-03-02T03:36:22;1.27;;;0.82;;
26965;SDS011;14522;52.068;4.414;2024-03-02T03:38:49;2.03;;;0.47;;
26965;SDS011;14522;52.068;4.414;2024-03-02T03:41:15;1.25;;;0.60;;
26965;SDS011;14522;52.068;4.414;2024-03-02T03:43:42;1.45;;;0.63;;
26965;SDS011;14522;52.068;4.414;2024-03-02T03:46:08;3.30;;;0.68;;
26965;SDS011;14522;52.068;4.414;2024-03-02T03:48:35;1.45;;;0.73;;
26965;SDS011;14522;52.068;4.414;2024-03-02T03:51:01;0.55;;;0.40;;
26965;SDS011;14522;52.068;4.414;2024-03-02T03:53:28;2.67;;;0.50;;
26965;SDS011;14522;52.068;4.414;2024-03-02T03:55:55;2.75;;;0.80;;
26965;SDS011;14522;52.068;4.414;2024-03-02T03:58:21;1.80;;;0.55;;
26965;SDS011;14522;52.068;4.414;2024-03-02T04:00:48;3.28;;;0.60;;
26965;SDS011;14522;52.068;4.414;2024-03-02T04:03:15;2.25;;;0.70;;
26965;SDS011;14522;52.068;4.414;2024-03-02T04:05:41;2.05;;;0.52;;
26965;SDS011;14522;52.068;4.414;2024-03-02T04:08:08;1.80;;;0.68;;
26965;SDS011;14522;52.068;4.414;2024-03-02T04:10:34;2.17;;;0.57;;
26965;SDS011;14522;52.068;4.414;2024-03-02T04:13:01;1.48;;;0.32;;
26965;SDS011;14522;52.068;4.414;2024-03-02T04:15:27;2.22;;;0.60;;
26965;SDS011;14522;52.068;4.414;2024-03-02T04:17:54;1.63;;;0.60;;
26965;SDS011;14522;52.068;4.414;2024-03-02T04:20:21;2.47;;;0.50;;
26965;SDS011;14522;52.068;4.414;2024-03-02T04:22:48;3.03;;;0.52;;
26965;SDS011;14522;52.068;4.414;2024-03-02T04:25:14;2.63;;;0.55;;
26965;SDS011;14522;52.068;4.414;2024-03-02T04:27:41;0.90;;;0.50;;
26965;SDS011;14522;52.068;4.414;2024-03-02T04:30:07;0.45;;;0.30;;
26965;SDS011;14522;52.068;4.414;2024-03-02T04:32:34;1.27;;;0.32;;
26965;SDS011;14522;52.068;4.414;2024-03-02T04:35:02;2.08;;;0.50;;
26965;SDS011;14522;52.068;4.414;2024-03-02T04:37:29;1.58;;;0.45;;
26965;SDS011;14522;52.068;4.414;2024-03-02T04:39:55;1.52;;;0.35;;
26965;SDS011;14522;52.068;4.414;2024-03-02T04:42:22;1.38;;;0.40;;
26965;SDS011;14522;52.068;4.414;2024-03-02T04:44:49;2.72;;;0.50;;
26965;SDS011;14522;52.068;4.414;2024-03-02T04:47:15;0.38;;;0.30;;
26965;SDS011;14522;52.068;4.414;2024-03-02T04:49:41;0.90;;;0.40;;
26965;SDS011;14522;52.068;4.414;2024-03-02T04:52:08;0.88;;;0.43;;
26965;SDS011;14522;52.068;4.414;2024-03-02T04:54:34;1.23;;;0.30;;
26965;SDS011;14522;52.068;4.414;2024-03-02T04:57:21;0.82;;;0.32;;
26965;SDS011;14522;52.068;4.414;2024-03-02T04:59:47;1.67;;;0.30;;
26965;SDS011;14522;52.068;4.414;2024-03-02T05:02:14;0.98;;;0.63;;
26965;SDS011;14522;52.068;4.414;2024-03-02T05:04:40;2.70;;;0.40;;
26965;SDS011;14522;52.068;4.414;2024-03-02T05:07:08;0.85;;;0.30;;
26965;SDS011;14522;52.068;4.414;2024-03-02T05:09:34;0.55;;;0.20;;
26965;SDS011;14522;52.068;4.414;2024-03-02T05:12:01;0.52;;;0.28;;
26965;SDS011;14522;52.068;4.414;2024-03-02T05:14:46;2.53;;;0.30;;
26965;SDS011;14522;52.068;4.414;2024-03-02T05:17:12;1.90;;;0.30;;
26965;SDS011;14522;52.068;4.414;2024-03-02T05:19:38;2.80;;;0.30;;
26965;SDS011;14522;52.068;4.414;2024-03-02T05:22:05;1.25;;;0.40;;
26965;SDS011;14522;52.068;4.414;2024-03-02T05:24:31;1.05;;;0.30;;
26965;SDS011;14522;52.068;4.414;2024-03-02T05:26:58;1.33;;;0.43;;
26965;SDS011;14522;52.068;4.414;2024-03-02T05:29:25;1.08;;;0.30;;
26965;SDS011;14522;52.068;4.414;2024-03-02T05:31:51;2.42;;;0.38;;
26965;SDS011;14522;52.068;4.414;2024-03-02T05:34:17;1.92;;;0.47;;
26965;SDS011;14522;52.068;4.414;2024-03-02T05:36:44;1.67;;;0.20;;
26965;SDS011;14522;52.068;4.414;2024-03-02T05:39:11;5.22;;;0.30;;
26965;SDS011;14522;52.068;4.414;2024-03-02T05:41:37;1.50;;;0.30;;
26965;SDS011;14522;52.068;4.414;2024-03-02T05:44:04;3.17;;;0.40;;
26965;SDS011;14522;52.068;4.414;2024-03-02T05:46:30;2.72;;;0.40;;
26965;SDS011;14522;52.068;4.414;2024-03-02T05:48:57;2.42;;;0.50;;
26965;SDS011;14522;52.068;4.414;2024-03-02T05:51:23;0.93;;;0.20;;
26965;SDS011;14522;52.068;4.414;2024-03-02T05:53:50;0.63;;;0.30;;
26965;SDS011;14522;52.068;4.414;2024-03-02T05:56:17;3.28;;;0.30;;
26965;SDS011;14522;52.068;4.414;2024-03-02T05:58:43;1.55;;;0.43;;
26965;SDS011;14522;52.068;4.414;2024-03-02T06:01:28;1.17;;;0.40;;
26965;SDS011;14522;52.068;4.414;2024-03-02T06:03:56;1.92;;;0.20;;
26965;SDS011;14522;52.068;4.414;2024-03-02T06:06:22;2.22;;;0.30;;
26965;SDS011;14522;52.068;4.414;2024-03-02T06:08:49;1.65;;;0.35;;
26965;SDS011;14522;52.068;4.414;2024-03-02T06:11:16;2.30;;;0.40;;
26965;SDS011;14522;52.068;4.414;2024-03-02T06:13:43;3.22;;;0.50;;
26965;SDS011;14522;52.068;4.414;2024-03-02T06:16:09;2.33;;;0.70;;
26965;SDS011;14522;52.068;4.414;2024-03-02T06:18:36;2.20;;;0.47;;
26965;SDS011;14522;52.068;4.414;2024-03-02T06:21:02;1.20;;;0.57;;
26965;SDS011;14522;52.068;4.414;2024-03-02T06:23:29;2.65;;;0.47;;
26965;SDS011;14522;52.068;4.414;2024-03-02T06:25:55;1.63;;;0.30;;
26965;SDS011;14522;52.068;4.414;2024-03-02T06:28:22;2.47;;;0.40;;
26965;SDS011;14522;52.068;4.414;2024-03-02T06:30:48;2.10;;;0.55;;
26965;SDS011;14522;52.068;4.414;2024-03-02T06:33:15;0.70;;;0.20;;
26965;SDS011;14522;52.068;4.414;2024-03-02T06:35:42;4.57;;;0.45;;
26965;SDS011;14522;52.068;4.414;2024-03-02T06:38:08;2.25;;;0.60;;
26965;SDS011;14522;52.068;4.414;2024-03-02T06:40:35;1.27;;;0.45;;
26965;SDS011;14522;52.068;4.414;2024-03-02T06:43:03;2.40;;;0.60;;
26965;SDS011;14522;52.068;4.414;2024-03-02T06:45:30;2.83;;;0.43;;
26965;SDS011;14522;52.068;4.414;2024-03-02T06:47:57;1.63;;;0.30;;
26965;SDS011;14522;52.068;4.414;2024-03-02T06:50:23;0.73;;;0.20;;
26965;SDS011;14522;52.068;4.414;2024-03-02T06:52:50;7.10;;;0.47;;
26965;SDS011;14522;52.068;4.414;2024-03-02T06:55:16;1.02;;;0.30;;
26965;SDS011;14522;52.068;4.414;2024-03-02T06:57:43;3.95;;;0.40;;
26965;SDS011;14522;52.068;4.414;2024-03-02T07:00:10;0.88;;;0.30;;
26965;SDS011;14522;52.068;4.414;2024-03-02T07:02:36;2.08;;;0.40;;
26965;SDS011;14522;52.068;4.414;2024-03-02T07:05:03;2.28;;;0.30;;
26965;SDS011;14522;52.068;4.414;2024-03-02T07:07:30;2.58;;;0.50;;
26965;SDS011;14522;52.068;4.414;2024-03-02T07:09:56;1.33;;;0.35;;
26965;SDS011;14522;52.068;4.414;2024-03-02T07:12:23;0.93;;;0.30;;
26965;SDS011;14522;52.068;4.414;2024-03-02T07:14:49;1.85;;;0.50;;
26965;SDS011;14522;52.068;4.414;2024-03-02T07:17:31;1.60;;;0.30;;
26965;SDS011;14522;52.068;4.414;2024-03-02T07:19:58;1.60;;;0.40;;
26965;SDS011;14522;52.068;4.414;2024-03-02T07:22:24;3.03;;;0.55;;
26965;SDS011;14522;52.068;4.414;2024-03-02T07:24:51;2.22;;;0.47;;
26965;SDS011;14522;52.068;4.414;2024-03-02T07:27:17;0.90;;;0.43;;
26965;SDS011;14522;52.068;4.414;2024-03-02T07:29:44;1.02;;;0.32;;
26965;SDS011;14522;52.068;4.414;2024-03-02T07:32:10;0.98;;;0.28;;
26965;SDS011;14522;52.068;4.414;2024-03-02T07:34:37;2.35;;;0.45;;
26965;SDS011;14522;52.068;4.414;2024-03-02T07:37:06;5.22;;;0.50;;
26965;SDS011;14522;52.068;4.414;2024-03-02T07:39:32;3.10;;;0.38;;
26965;SDS011;14522;52.068;4.414;2024-03-02T07:41:59;1.98;;;0.40;;
26965;SDS011;14522;52.068;4.414;2024-03-02T07:44:26;2.13;;;0.40;;
26965;SDS011;14522;52.068;4.414;2024-03-02T07:46:53;3.85;;;0.63;;
26965;SDS011;14522;52.068;4.414;2024-03-02T07:49:19;2.05;;;0.40;;
26965;SDS011;14522;52.068;4.414;2024-03-02T07:51:46;3.05;;;0.68;;
26965;SDS011;14522;52.068;4.414;2024-03-02T07:54:13;3.47;;;0.40;;
26965;SDS011;14522;52.068;4.414;2024-03-02T07:56:39;3.90;;;0.25;;
26965;SDS011;14522;52.068;4.414;2024-03-02T07:59:05;1.88;;;0.40;;
26965;SDS011;14522;52.068;4.414;2024-03-02T08:01:33;0.22;;;0.20;;
26965;SDS011;14522;52.068;4.414;2024-03-02T08:04:01;3.67;;;0.43;;
26965;SDS011;14522;52.068;4.414;2024-03-02T08:06:29;4.25;;;0.60;;
26965;SDS011;14522;52.068;4.414;2024-03-02T08:08:57;1.38;;;0.57;;
26965;SDS011;14522;52.068;4.414;2024-03-02T08:11:23;1.33;;;0.40;;
26965;SDS011;14522;52.068;4.414;2024-03-02T08:13:50;2.55;;;0.75;;
26965;SDS011;14522;52.068;4.414;2024-03-02T08:16:18;3.42;;;0.57;;
26965;SDS011;14522;52.068;4.414;2024-03-02T08:18:47;5.75;;;0.85;;
26965;SDS011;14522;52.068;4.414;2024-03-02T08:21:14;2.08;;;0.50;;
26965;SDS011;14522;52.068;4.414;2024-03-02T08:23:40;3.78;;;0.47;;
26965;SDS011;14522;52.068;4.414;2024-03-02T08:26:10;3.83;;;0.52;;
26965;SDS011;14522;52.068;4.414;2024-03-02T08:28:36;3.40;;;0.77;;
26965;SDS011;14522;52.068;4.414;2024-03-02T08:31:09;4.47;;;0.57;;
26965;SDS011;14522;52.068;4.414;2024-03-02T08:33:36;2.28;;;0.60;;
26965;SDS011;14522;52.068;4.414;2024-03-02T08:36:04;2.40;;;0.68;;
26965;SDS011;14522;52.068;4.414;2024-03-02T08:38:30;3.40;;;0.70;;
26965;SDS011;14522;52.068;4.414;2024-03-02T08:40:57;2.75;;;0.65;;
26965;SDS011;14522;52.068;4.414;2024-03-02T08:43:23;0.60;;;0.20;;
26965;SDS011;14522;52.068;4.414;2024-03-02T08:45:51;4.75;;;0.70;;
26965;SDS011;14522;52.068;4.414;2024-03-02T08:48:17;2.63;;;0.52;;
26965;SDS011;14522;52.068;4.414;2024-03-02T08:50:44;1.55;;;0.50;;
26965;SDS011;14522;52.068;4.414;2024-03-02T08:53:10;2.33;;;0.50;;
26965;SDS011;14522;52.068;4.414;2024-03-02T08:55:37;1.60;;;0.50;;
26965;SDS011;14522;52.068;4.414;2024-03-02T08:58:03;3.17;;;0.50;;
26965;SDS011;14522;52.068;4.414;2024-03-02T09:00:30;4.38;;;0.50;;
26965;SDS011;14522;52.068;4.414;2024-03-02T09:02:56;1.27;;;0.40;;
26965;SDS011;14522;52.068;4.414;2024-03-02T09:05:23;5.85;;;0.50;;
26965;SDS011;14522;52.068;4.414;2024-03-02T09:07:49;3.70;;;0.80;;
26965;SDS011;14522;52.068;4.414;2024-03-02T09:10:15;3.88;;;0.70;;
26965;SDS011;14522;52.068;4.414;2024-03-02T09:12:42;2.60;;;0.65;;
26965;SDS011;14522;52.068;4.414;2024-03-02T09:15:09;2.90;;;0.52;;
26965;SDS011;14522;52.068;4.414;2024-03-02T09:17:35;2.40;;;0.73;;
26965;SDS011;14522;52.068;4.414;2024-03-02T09:20:02;7.50;;;1.13;;
26965;SDS011;14522;52.068;4.414;2024-03-02T09:22:30;6.43;;;1.65;;
26965;SDS011;14522;52.068;4.414;2024-03-02T09:24:56;3.45;;;0.60;;
26965;SDS011;14522;52.068;4.414;2024-03-02T09:27:23;4.80;;;0.80;;
26965;SDS011;14522;52.068;4.414;2024-03-02T09:29:49;4.18;;;0.82;;
26965;SDS011;14522;52.068;4.414;2024-03-02T09:32:16;3.35;;;0.43;;
26965;SDS011;14522;52.068;4.414;2024-03-02T09:34:42;1.88;;;0.35;;
26965;SDS011;14522;52.068;4.414;2024-03-02T09:37:09;3.92;;;0.57;;
26965;SDS011;14522;52.068;4.414;2024-03-02T09:39:36;4.72;;;0.55;;
26965;SDS011;14522;52.068;4.414;2024-03-02T09:42:03;4.53;;;0.57;;
26965;SDS011;14522;52.068;4.414;2024-03-02T09:44:30;3.10;;;0.47;;
26965;SDS011;14522;52.068;4.414;2024-03-02T09:46:56;2.67;;;0.57;;
26965;SDS011;14522;52.068;4.414;2024-03-02T09:49:23;2.83;;;0.82;;
26965;SDS011;14522;52.068;4.414;2024-03-02T09:51:50;3.50;;;0.77;;
26965;SDS011;14522;52.068;4.414;2024-03-02T09:54:16;5.53;;;0.80;;
26965;SDS011;14522;52.068;4.414;2024-03-02T09:56:49;4.28;;;0.70;;
26965;SDS011;14522;52.068;4.414;2024-03-02T09:59:15;2.67;;;0.60;;
26965;SDS011;14522;52.068;4.414;2024-03-02T10:01:56;5.47;;;0.77;;
26965;SDS011;14522;52.068;4.414;2024-03-02T10:04:25;2.15;;;0.52;;
26965;SDS011;14522;52.068;4.414;2024-03-02T10:06:57;4.13;;;0.60;;
26965;SDS011;14522;52.068;4.414;2024-03-02T10:09:35;6.03;;;0.93;;
26965;SDS011;14522;52.068;4.414;2024-03-02T10:12:05;5.72;;;0.75;;
26965;SDS011;14522;52.068;4.414;2024-03-02T10:14:31;6.07;;;0.68;;
26965;SDS011;14522;52.068;4.414;2024-03-02T10:17:02;2.28;;;0.50;;
26965;SDS011;14522;52.068;4.414;2024-03-02T10:19:29;1.88;;;0.50;;
26965;SDS011;14522;52.068;4.414;2024-03-02T10:21:59;1.92;;;0.43;;
26965;SDS011;14522;52.068;4.414;2024-03-02T10:24:39;2.13;;;0.70;;
26965;SDS011;14522;52.068;4.414;2024-03-02T10:27:16;3.22;;;0.60;;
26965;SDS011;14522;52.068;4.414;2024-03-02T10:29:45;5.60;;;1.17;;
26965;SDS011;14522;52.068;4.414;2024-03-02T10:32:12;4.43;;;1.40;;
26965;SDS011;14522;52.068;4.414;2024-03-02T10:34:42;4.35;;;1.08;;
26965;SDS011;14522;52.068;4.414;2024-03-02T10:37:08;6.03;;;0.95;;
26965;SDS011;14522;52.068;4.414;2024-03-02T10:39:36;5.95;;;0.73;;
26965;SDS011;14522;52.068;4.414;2024-03-02T10:42:04;2.85;;;0.65;;
26965;SDS011;14522;52.068;4.414;2024-03-02T10:44:32;3.45;;;0.80;;
26965;SDS011;14522;52.068;4.414;2024-03-02T10:47:02;3.63;;;1.27;;
26965;SDS011;14522;52.068;4.414;2024-03-02T10:49:30;4.05;;;0.73;;
26965;SDS011;14522;52.068;4.414;2024-03-02T10:52:00;4.15;;;0.77;;
26965;SDS011;14522;52.068;4.414;2024-03-02T10:54:27;4.70;;;0.80;;
26965;SDS011;14522;52.068;4.414;2024-03-02T10:56:58;3.70;;;0.90;;
26965;SDS011;14522;52.068;4.414;2024-03-02T10:59:28;6.93;;;1.13;;
26965;SDS011;14522;52.068;4.414;2024-03-02T11:02:00;6.55;;;0.90;;
26965;SDS011;14522;52.068;4.414;2024-03-02T11:04:31;7.40;;;0.90;;
26965;SDS011;14522;52.068;4.414;2024-03-02T11:09:25;6.70;;;0.75;;
26965;SDS011;14522;52.068;4.414;2024-03-02T11:14:31;3.83;;;0.68;;
26965;SDS011;14522;52.068;4.414;2024-03-02T11:17:01;3.70;;;0.70;;
26965;SDS011;14522;52.068;4.414;2024-03-02T11:19:29;9.32;;;1.20;;
26965;SDS011;14522;52.068;4.414;2024-03-02T11:21:56;5.43;;;1.67;;
26965;SDS011;14522;52.068;4.414;2024-03-02T11:26:50;1.83;;;0.50;;
26965;SDS011;14522;52.068;4.414;2024-03-02T11:32:03;5.38;;;0.80;;
26965;SDS011;14522;52.068;4.414;2024-03-02T11:34:30;2.05;;;0.50;;
26965;SDS011;14522;52.068;4.414;2024-03-02T11:37:03;2.30;;;0.60;;
26965;SDS011;14522;52.068;4.414;2024-03-02T11:39:31;3.45;;;0.70;;
26965;SDS011;14522;52.068;4.414;2024-03-02T11:41:57;2.05;;;0.40;;
26965;SDS011;14522;52.068;4.414;2024-03-02T11:44:26;2.75;;;0.70;;
26965;SDS011;14522;52.068;4.414;2024-03-02T11:47:02;2.03;;;0.68;;
26965;SDS011;14522;52.068;4.414;2024-03-02T11:52:07;9.00;;;1.27;;
26965;SDS011;14522;52.068;4.414;2024-03-02T11:54:34;4.32;;;0.52;;
26965;SDS011;14522;52.068;4.414;2024-03-02T11:57:02;9.68;;;1.02;;
26965;SDS011;14522;52.068;4.414;2024-03-02T11:59:29;5.70;;;1.45;;
26965;SDS011;14522;52.068;4.414;2024-03-02T12:01:56;2.70;;;0.60;;
26965;SDS011;14522;52.068;4.414;2024-03-02T12:04:23;4.25;;;0.52;;
26965;SDS011;14522;52.068;4.414;2024-03-02T12:09:22;5.15;;;0.90;;
26965;SDS011;14522;52.068;4.414;2024-03-02T12:12:00;4.63;;;0.52;;
26965;SDS011;14522;52.068;4.414;2024-03-02T12:14:27;1.95;;;0.47;;
26965;SDS011;14522;52.068;4.414;2024-03-02T12:16:55;3.50;;;0.68;;
26965;SDS011;14522;52.068;4.414;2024-03-02T12:19:22;4.13;;;0.60;;
26965;SDS011;14522;52.068;4.414;2024-03-02T12:21:48;2.10;;;0.60;;
26965;SDS011;14522;52.068;4.414;2024-03-02T12:24:14;2.15;;;0.45;;
26965;SDS011;14522;52.068;4.414;2024-03-02T12:26:41;3.42;;;0.77;;
26965;SDS011;14522;52.068;4.414;2024-03-02T12:29:08;6.35;;;1.00;;
26965;SDS011;14522;52.068;4.414;2024-03-02T12:31:34;2.95;;;0.68;;
26965;SDS011;14522;52.068;4.414;2024-03-02T12:34:02;5.15;;;0.93;;
26965;SDS011;14522;52.068;4.414;2024-03-02T12:36:29;5.43;;;0.60;;
26965;SDS011;14522;52.068;4.414;2024-03-02T12:38:55;8.18;;;0.80;;
26965;SDS011;14522;52.068;4.414;2024-03-02T12:41:21;1.83;;;0.38;;
26965;SDS011;14522;52.068;4.414;2024-03-02T12:43:48;5.13;;;0.60;;
26965;SDS011;14522;52.068;4.414;2024-03-02T12:46:14;4.93;;;0.60;;
26965;SDS011;14522;52.068;4.414;2024-03-02T12:48:42;5.82;;;1.00;;
26965;SDS011;14522;52.068;4.414;2024-03-02T12:51:08;5.32;;;0.63;;
26965;SDS011;14522;52.068;4.414;2024-03-02T12:53:35;4.10;;;0.73;;
26965;SDS011;14522;52.068;4.414;2024-03-02T12:56:01;3.65;;;0.63;;
26965;SDS011;14522;52.068;4.414;2024-03-02T12:58:28;6.15;;;0.93;;
26965;SDS011;14522;52.068;4.414;2024-03-02T13:01:06;4.47;;;1.00;;
26965;SDS011;14522;52.068;4.414;2024-03-02T13:03:40;3.15;;;0.63;;
26965;SDS011;14522;52.068;4.414;2024-03-02T13:06:07;5.35;;;1.05;;
26965;SDS011;14522;52.068;4.414;2024-03-02T13:08:33;4.53;;;0.98;;
26965;SDS011;14522;52.068;4.414;2024-03-02T13:11:00;3.95;;;0.80;;
26965;SDS011;14522;52.068;4.414;2024-03-02T13:13:30;6.05;;;1.13;;
26965;SDS011;14522;52.068;4.414;2024-03-02T13:15:56;3.20;;;0.80;;
26965;SDS011;14522;52.068;4.414;2024-03-02T13:18:23;5.50;;;0.88;;
26965;SDS011;14522;52.068;4.414;2024-03-02T13:20:49;3.05;;;0.50;;
26965;SDS011;14522;52.068;4.414;2024-03-02T13:23:16;1.98;;;0.40;;
26965;SDS011;14522;52.068;4.414;2024-03-02T13:25:42;5.45;;;0.88;;
26965;SDS011;14522;52.068;4.414;2024-03-02T13:28:09;3.08;;;0.75;;
26965;SDS011;14522;52.068;4.414;2024-03-02T13:30:36;6.05;;;0.80;;
26965;SDS011;14522;52.068;4.414;2024-03-02T13:33:02;4.32;;;0.68;;
26965;SDS011;14522;52.068;4.414;2024-03-02T13:35:29;2.17;;;0.50;;
26965;SDS011;14522;52.068;4.414;2024-03-02T13:37:55;1.60;;;0.50;;
26965;SDS011;14522;52.068;4.414;2024-03-02T13:40:22;1.77;;;0.60;;
26965;SDS011;14522;52.068;4.414;2024-03-02T13:42:49;2.85;;;0.68;;
26965;SDS011;14522;52.068;4.414;2024-03-02T13:45:17;6.10;;;0.90;;
26965;SDS011;14522;52.068;4.414;2024-03-02T13:47:44;5.53;;;0.90;;
26965;SDS011;14522;52.068;4.414;2024-03-02T13:50:10;5.47;;;0.93;;
26965;SDS011;14522;52.068;4.414;2024-03-02T13:52:37;4.03;;;0.60;;
26965;SDS011;14522;52.068;4.414;2024-03-02T13:55:03;2.40;;;0.55;;
26965;SDS011;14522;52.068;4.414;2024-03-02T13:57:30;4.03;;;0.95;;
26965;SDS011;14522;52.068;4.414;2024-03-02T13:59:57;7.28;;;0.90;;
26965;SDS011;14522;52.068;4.414;2024-03-02T14:02:23;1.85;;;0.60;;
26965;SDS011;14522;52.068;4.414;2024-03-02T14:04:49;3.33;;;0.77;;
26965;SDS011;14522;52.068;4.414;2024-03-02T14:07:16;1.85;;;0.40;;
26965;SDS011;14522;52.068;4.414;2024-03-02T14:09:43;2.40;;;0.75;;
26965;SDS011;14522;52.068;4.414;2024-03-02T14:12:10;4.88;;;0.60;;
26965;SDS011;14522;52.068;4.414;2024-03-02T14:14:36;3.17;;;0.65;;
26965;SDS011;14522;52.068;4.414;2024-03-02T14:17:03;2.42;;;0.55;;
26965;SDS011;14522;52.068;4.414;2024-03-02T14:19:33;2.03;;;0.65;;
26965;SDS011;14522;52.068;4.414;2024-03-02T14:21:59;3.40;;;0.40;;
26965;SDS011;14522;52.068;4.414;2024-03-02T14:24:26;6.20;;;0.85;;
26965;SDS011;14522;52.068;4.414;2024-03-02T14:26:54;3.17;;;0.60;;
26965;SDS011;14522;52.068;4.414;2024-03-02T14:29:35;4.28;;;0.57;;
26965;SDS011;14522;52.068;4.414;2024-03-02T14:32:04;5.35;;;0.70;;
26965;SDS011;14522;52.068;4.414;2024-03-02T14:34:31;1.63;;;0.30;;
26965;SDS011;14522;52.068;4.414;2024-03-02T14:36:57;2.08;;;0.55;;
26965;SDS011;14522;52.068;4.414;2024-03-02T14:39:24;2.17;;;0.47;;
26965;SDS011;14522;52.068;4.414;2024-03-02T14:41:50;3.58;;;0.70;;
26965;SDS011;14522;52.068;4.414;2024-03-02T14:44:17;2.47;;;0.43;;
26965;SDS011;14522;52.068;4.414;2024-03-02T14:46:47;2.80;;;0.80;;
26965;SDS011;14522;52.068;4.414;2024-03-02T14:49:14;5.95;;;0.52;;
26965;SDS011;14522;52.068;4.414;2024-03-02T14:51:40;2.95;;;0.50;;
26965;SDS011;14522;52.068;4.414;2024-03-02T14:54:07;2.38;;;0.60;;
26965;SDS011;14522;52.068;4.414;2024-03-02T14:56:33;1.73;;;0.60;;
26965;SDS011;14522;52.068;4.414;2024-03-02T14:59:00;3.78;;;1.00;;
26965;SDS011;14522;52.068;4.414;2024-03-02T15:01:26;4.50;;;1.10;;
26965;SDS011;14522;52.068;4.414;2024-03-02T15:03:53;4.15;;;0.70;;
26965;SDS011;14522;52.068;4.414;2024-03-02T15:06:19;3.20;;;0.40;;